Time;durP1;ratioP1;P1;durP2;ratioP2;P2;SDS_P1;SDS_P2;PMS_P1;PMS_P2;Temp;Humidity;BMP_temperature;BMP_pressure;BME280_temperature;BME280_humidity;BME280_pressure;Samples;Min_cycle;Max_cycle;Signal;HPM_P1;HPM_P2
2021/06/18 00:01:40;;;;;;;4.93;3.88;;;;;;;;;;5033142;28;20036;-65
2021/06/18 00:04:06;;;;;;;5.55;4.05;;;;;;;;;;5066630;28;20041;-66
2021/06/18 00:06:31;;;;;;;5.60;3.97;;;;;;;;;;5051468;28;20036;-65
2021/06/18 00:08:57;;;;;;;4.97;4.20;;;;;;;;;;5036235;28;20057;-66
2021/06/18 00:11:22;;;;;;;5.30;3.95;;;;;;;;;;5065703;28;20563;-65
2021/06/18 00:13:48;;;;;;;5.75;3.97;;;;;;;;;;5050229;28;20041;-66
2021/06/18 00:16:13;;;;;;;5.75;3.90;;;;;;;;;;5050697;28;20255;-66
2021/06/18 00:18:40;;;;;;;4.32;3.78;;;;;;;;;;5049525;28;20099;-66
2021/06/18 00:21:06;;;;;;;4.15;3.50;;;;;;;;;;5050595;28;20069;-66
2021/06/18 00:23:31;;;;;;;5.80;4.00;;;;;;;;;;5051231;28;20037;-66
2021/06/18 00:25:57;;;;;;;5.65;4.25;;;;;;;;;;5049234;28;21978;-66
2021/06/18 00:28:22;;;;;;;6.30;3.88;;;;;;;;;;5050793;28;20498;-66
2021/06/18 00:30:48;;;;;;;5.18;3.65;;;;;;;;;;5052034;28;20386;-65
2021/06/18 00:33:13;;;;;;;6.60;3.45;;;;;;;;;;5052149;28;20029;-65
2021/06/18 00:35:38;;;;;;;4.32;3.67;;;;;;;;;;5033044;28;20087;-66
2021/06/18 00:38:04;;;;;;;5.68;3.85;;;;;;;;;;5035717;28;20041;-66
2021/06/18 00:40:29;;;;;;;4.65;3.75;;;;;;;;;;5065663;28;20045;-65
2021/06/18 00:42:55;;;;;;;5.20;3.60;;;;;;;;;;5050459;28;20034;-65
2021/06/18 00:45:21;;;;;;;5.82;4.30;;;;;;;;;;5052201;28;20439;-65
2021/06/18 00:47:50;;;;;;;4.82;3.80;;;;;;;;;;5016853;28;20033;-65
2021/06/18 00:50:17;;;;;;;4.90;3.53;;;;;;;;;;5032058;28;20037;-66
2021/06/18 00:52:42;;;;;;;5.32;3.80;;;;;;;;;;5066203;28;20037;-65
2021/06/18 00:55:09;;;;;;;4.78;3.50;;;;;;;;;;5048779;28;20044;-65
2021/06/18 00:57:34;;;;;;;5.82;4.00;;;;;;;;;;5033479;28;20115;-65
2021/06/18 01:00:00;;;;;;;6.10;4.03;;;;;;;;;;5051470;28;20037;-65
2021/06/18 01:02:25;;;;;;;5.30;3.90;;;;;;;;;;5048934;28;20500;-65
2021/06/18 01:04:51;;;;;;;5.25;3.95;;;;;;;;;;5050492;28;20036;-65
2021/06/18 01:07:17;;;;;;;6.57;4.30;;;;;;;;;;5050971;28;20043;-65
2021/06/18 01:10:03;;;;;;;6.80;4.32;;;;;;;;;;5051054;28;20039;-65
2021/06/18 01:12:31;;;;;;;5.95;3.65;;;;;;;;;;5049299;28;20206;-65
2021/06/18 01:15:23;;;;;;;4.63;3.53;;;;;;;;;;5034121;28;20064;-65
2021/06/18 01:18:01;;;;;;;5.45;3.67;;;;;;;;;;5033950;28;20342;-65
2021/06/18 01:20:43;;;;;;;4.75;3.75;;;;;;;;;;5033409;28;20139;-65
2021/06/18 01:23:29;;;;;;;4.50;3.42;;;;;;;;;;5030556;28;20879;-65
2021/06/18 01:26:22;;;;;;;4.30;3.30;;;;;;;;;;5036534;28;20042;-65
2021/06/18 01:28:52;;;;;;;7.07;3.63;;;;;;;;;;5049003;28;20057;-65
2021/06/18 01:31:19;;;;;;;4.60;3.55;;;;;;;;;;5050250;28;20072;-65
2021/06/18 01:33:47;;;;;;;5.47;3.65;;;;;;;;;;5031793;28;20055;-65
2021/06/18 01:36:13;;;;;;;4.35;3.13;;;;;;;;;;5031705;28;20041;-65
2021/06/18 01:38:39;;;;;;;4.35;3.10;;;;;;;;;;5041730;28;20030;-65
2021/06/18 01:41:07;;;;;;;5.82;3.58;;;;;;;;;;5032177;28;20179;-65
2021/06/18 01:43:33;;;;;;;4.60;3.58;;;;;;;;;;5030684;28;20037;-65
2021/06/18 01:45:58;;;;;;;4.90;4.00;;;;;;;;;;5013204;28;20061;-65
2021/06/18 01:48:24;;;;;;;5.40;3.85;;;;;;;;;;5031422;28;20083;-65
2021/06/18 01:50:54;;;;;;;4.28;3.30;;;;;;;;;;5014539;28;20071;-65
2021/06/18 01:53:20;;;;;;;5.38;3.53;;;;;;;;;;5032200;28;20055;-65
2021/06/18 01:55:46;;;;;;;5.05;3.40;;;;;;;;;;5031170;28;20038;-65
2021/06/18 01:58:12;;;;;;;5.22;3.60;;;;;;;;;;5018403;28;20038;-65
2021/06/18 02:00:44;;;;;;;4.80;3.80;;;;;;;;;;5026510;28;20398;-65
2021/06/18 02:03:09;;;;;;;;;;;;;;;;;;5031603;28;20091;-65
2021/06/18 02:05:35;;;;;;;5.75;3.70;;;;;;;;;;5049927;28;19921;-65
2021/06/18 02:08:01;;;;;;;5.65;3.90;;;;;;;;;;5021464;28;20052;-65
2021/06/18 02:10:26;;;;;;;6.25;3.60;;;;;;;;;;5052815;28;20044;-65
2021/06/18 02:12:52;;;;;;;4.30;3.35;;;;;;;;;;5052828;28;20036;-65
2021/06/18 02:15:17;;;;;;;5.75;3.47;;;;;;;;;;5035973;28;20046;-65
2021/06/18 02:17:43;;;;;;;5.75;3.00;;;;;;;;;;5039149;28;20025;-65
2021/06/18 02:20:09;;;;;;;5.88;3.47;;;;;;;;;;5049749;28;20111;-65
2021/06/18 02:22:35;;;;;;;5.70;3.40;;;;;;;;;;5034755;28;20046;-65
2021/06/18 02:25:01;;;;;;;4.75;3.08;;;;;;;;;;5033028;28;21305;-65
2021/06/18 02:27:26;;;;;;;4.97;2.90;;;;;;;;;;5035813;28;20046;-65
2021/06/18 02:29:52;;;;;;;4.20;2.90;;;;;;;;;;5048304;28;20344;-65
2021/06/18 02:32:17;;;;;;;5.63;3.00;;;;;;;;;;5030348;28;20119;-65
2021/06/18 02:34:43;;;;;;;3.50;2.65;;;;;;;;;;5017984;28;20536;-65
2021/06/18 02:37:10;;;;;;;3.63;2.85;;;;;;;;;;5033385;28;20041;-65
2021/06/18 02:39:35;;;;;;;4.25;2.60;;;;;;;;;;5051450;28;20949;-65
2021/06/18 02:42:00;;;;;;;3.35;2.55;;;;;;;;;;5031436;28;20041;-66
2021/06/18 02:44:26;;;;;;;4.20;2.78;;;;;;;;;;5052160;28;20544;-65
2021/06/18 02:46:52;;;;;;;4.57;2.80;;;;;;;;;;5067088;28;20033;-65
2021/06/18 02:49:19;;;;;;;4.28;3.10;;;;;;;;;;5052901;28;20548;-65
2021/06/18 02:51:50;;;;;;;4.72;2.78;;;;;;;;;;5019290;28;20040;-65
2021/06/18 02:54:27;;;;;;;4.28;2.88;;;;;;;;;;5021356;28;20037;-65
2021/06/18 02:57:05;;;;;;;4.18;3.33;;;;;;;;;;5067202;28;20034;-65
2021/06/18 02:59:49;;;;;;;4.28;3.05;;;;;;;;;;5036339;28;20034;-65
2021/06/18 03:02:17;;;;;;;4.60;3.20;;;;;;;;;;5033462;28;20120;-65
2021/06/18 03:04:42;;;;;;;3.95;3.00;;;;;;;;;;5018867;28;20036;-65
2021/06/18 03:07:12;;;;;;;4.22;3.10;;;;;;;;;;5003278;28;20402;-65
2021/06/18 03:09:42;;;;;;;4.97;3.28;;;;;;;;;;5043400;28;20041;-65
2021/06/18 03:12:08;;;;;;;4.68;3.00;;;;;;;;;;5067300;28;20033;-65
2021/06/18 03:14:35;;;;;;;3.67;2.78;;;;;;;;;;5049698;28;20033;-65
2021/06/18 03:17:03;;;;;;;4.28;3.35;;;;;;;;;;5003357;28;20600;-65
2021/06/18 03:19:31;;;;;;;4.53;2.78;;;;;;;;;;5033652;28;20079;-65
2021/06/18 03:21:58;;;;;;;4.03;2.90;;;;;;;;;;5042637;28;20045;-65
2021/06/18 03:24:23;;;;;;;3.88;3.20;;;;;;;;;;5055678;28;20029;-66
2021/06/18 03:26:49;;;;;;;4.32;3.45;;;;;;;;;;5032101;28;20036;-65
2021/06/18 03:29:14;;;;;;;4.80;3.85;;;;;;;;;;5049885;28;20474;-65
2021/06/18 03:31:40;;;;;;;5.43;3.47;;;;;;;;;;5017084;28;20394;-65
2021/06/18 03:34:06;;;;;;;5.43;3.90;;;;;;;;;;5017473;28;20048;-65
2021/06/18 03:36:32;;;;;;;5.80;4.35;;;;;;;;;;5047584;28;20048;-65
2021/06/18 03:38:57;;;;;;;5.75;4.45;;;;;;;;;;5032356;28;20037;-65
2021/06/18 03:41:23;;;;;;;5.53;3.08;;;;;;;;;;5048014;28;20108;-65
2021/06/18 03:43:49;;;;;;;4.30;3.20;;;;;;;;;;5058642;28;20044;-65
2021/06/18 03:46:14;;;;;;;4.63;3.20;;;;;;;;;;5024458;28;20029;-65
2021/06/18 03:48:40;;;;;;;4.50;3.13;;;;;;;;;;5031716;28;20563;-65
2021/06/18 03:51:06;;;;;;;4.70;3.08;;;;;;;;;;5041265;28;20029;-65
2021/06/18 03:53:33;;;;;;;4.35;2.97;;;;;;;;;;5015237;28;20478;-66
2021/06/18 03:55:58;;;;;;;5.40;3.40;;;;;;;;;;5032077;28;20494;-65
2021/06/18 03:58:24;;;;;;;5.72;3.60;;;;;;;;;;5031381;28;20033;-65
2021/06/18 04:00:50;;;;;;;5.60;3.70;;;;;;;;;;5018565;28;20489;-65
2021/06/18 04:03:16;;;;;;;5.22;3.67;;;;;;;;;;5048633;28;20302;-65
2021/06/18 04:05:42;;;;;;;6.00;3.78;;;;;;;;;;5052172;28;20114;-65
2021/06/18 04:08:07;;;;;;;5.78;3.65;;;;;;;;;;5016496;28;20041;-65
2021/06/18 04:10:33;;;;;;;5.15;3.60;;;;;;;;;;5015285;28;20042;-65
2021/06/18 04:12:58;;;;;;;3.70;3.13;;;;;;;;;;5036076;28;20043;-65
2021/06/18 04:15:24;;;;;;;5.15;3.67;;;;;;;;;;5050219;28;20033;-65
2021/06/18 04:17:52;;;;;;;6.13;3.90;;;;;;;;;;5031618;28;20026;-65
2021/06/18 04:20:22;;;;;;;4.97;3.45;;;;;;;;;;5064358;28;20033;-66
2021/06/18 04:22:48;;;;;;;6.65;4.20;;;;;;;;;;5050597;28;20041;-65
2021/06/18 04:25:14;;;;;;;5.15;3.67;;;;;;;;;;5032526;28;20041;-65
2021/06/18 04:27:40;;;;;;;5.78;4.25;;;;;;;;;;5050488;28;20037;-65
2021/06/18 04:30:07;;;;;;;5.00;4.03;;;;;;;;;;5046594;28;20553;-65
2021/06/18 04:32:32;;;;;;;6.15;4.28;;;;;;;;;;5049185;28;20038;-65
2021/06/18 04:34:58;;;;;;;5.60;4.05;;;;;;;;;;5049525;28;20545;-65
2021/06/18 04:37:23;;;;;;;7.13;4.00;;;;;;;;;;5050924;28;20029;-65
2021/06/18 04:39:49;;;;;;;6.63;4.88;;;;;;;;;;5030585;28;20041;-65
2021/06/18 04:42:14;;;;;;;5.30;4.43;;;;;;;;;;5050291;28;20312;-65
2021/06/18 04:44:40;;;;;;;5.43;4.30;;;;;;;;;;5049940;28;20033;-65
2021/06/18 04:47:05;;;;;;;7.40;4.72;;;;;;;;;;5050354;28;20045;-65
2021/06/18 04:49:31;;;;;;;4.95;4.20;;;;;;;;;;5049416;28;20033;-65
2021/06/18 04:51:56;;;;;;;6.15;4.00;;;;;;;;;;5048837;28;20037;-65
2021/06/18 04:54:23;;;;;;;7.32;4.88;;;;;;;;;;5014384;28;20029;-65
2021/06/18 04:56:48;;;;;;;5.10;4.13;;;;;;;;;;5030382;28;20164;-65
2021/06/18 04:59:14;;;;;;;6.30;4.57;;;;;;;;;;5065175;28;20390;-65
2021/06/18 05:01:39;;;;;;;6.00;4.20;;;;;;;;;;5031739;28;20041;-67
2021/06/18 05:04:05;;;;;;;6.00;4.63;;;;;;;;;;5049813;28;20387;-65
2021/06/18 05:06:30;;;;;;;6.18;4.38;;;;;;;;;;5048897;28;20026;-65
2021/06/18 05:08:56;;;;;;;5.50;3.90;;;;;;;;;;5049215;28;20033;-65
2021/06/18 05:11:23;;;;;;;5.53;3.83;;;;;;;;;;5049009;28;20512;-65
2021/06/18 05:13:51;;;;;;;4.97;3.70;;;;;;;;;;5048323;28;20096;-65
2021/06/18 05:16:16;;;;;;;5.40;4.25;;;;;;;;;;5048639;28;20033;-65
2021/06/18 05:18:42;;;;;;;6.00;4.10;;;;;;;;;;5051502;28;20144;-64
2021/06/18 05:21:07;;;;;;;6.18;4.47;;;;;;;;;;5050679;28;20044;-65
2021/06/18 05:23:33;;;;;;;5.82;4.03;;;;;;;;;;5014799;28;20103;-65
2021/06/18 05:25:58;;;;;;;7.18;4.20;;;;;;;;;;5049804;28;20030;-65
2021/06/18 05:28:24;;;;;;;5.82;4.20;;;;;;;;;;5049538;28;20104;-64
2021/06/18 05:30:49;;;;;;;5.80;4.22;;;;;;;;;;5030187;28;20701;-66
2021/06/18 05:33:15;;;;;;;5.90;4.40;;;;;;;;;;5041028;28;20033;-65
2021/06/18 05:35:42;;;;;;;6.13;4.80;;;;;;;;;;5040894;28;20037;-65
2021/06/18 05:38:08;;;;;;;6.45;4.53;;;;;;;;;;5049993;28;20624;-65
2021/06/18 05:40:33;;;;;;;6.25;4.30;;;;;;;;;;5031899;28;20036;-65
2021/06/18 05:42:59;;;;;;;6.93;4.30;;;;;;;;;;5066496;28;20041;-65
2021/06/18 05:45:25;;;;;;;7.05;5.13;;;;;;;;;;5051337;28;20029;-65
2021/06/18 05:47:50;;;;;;;6.45;4.78;;;;;;;;;;5067878;28;20516;-65
2021/06/18 05:50:15;;;;;;;6.00;4.72;;;;;;;;;;5033691;28;20113;-65
2021/06/18 05:52:41;;;;;;;5.43;4.78;;;;;;;;;;5052390;28;20033;-64
2021/06/18 05:55:07;;;;;;;6.72;4.78;;;;;;;;;;5051002;28;20428;-65
2021/06/18 05:57:33;;;;;;;8.65;6.00;;;;;;;;;;5037136;28;20036;-65
2021/06/18 05:59:58;;;;;;;7.10;5.45;;;;;;;;;;5067820;28;20173;-65
2021/06/18 06:02:24;;;;;;;7.22;5.38;;;;;;;;;;5053418;28;20037;-65
2021/06/18 06:04:50;;;;;;;8.38;5.47;;;;;;;;;;5053773;28;20899;-65
2021/06/18 06:07:15;;;;;;;9.70;5.90;;;;;;;;;;5052007;28;20036;-65
2021/06/18 06:09:41;;;;;;;6.47;5.40;;;;;;;;;;5052022;28;20033;-65
2021/06/18 06:12:07;;;;;;;7.22;5.75;;;;;;;;;;5037646;28;20033;-65
2021/06/18 06:14:32;;;;;;;7.82;6.20;;;;;;;;;;5052468;28;20056;-65
2021/06/18 06:16:58;;;;;;;7.95;5.90;;;;;;;;;;5051774;28;20041;-65
2021/06/18 06:19:23;;;;;;;7.35;5.75;;;;;;;;;;5052634;28;20043;-66
2021/06/18 06:21:49;;;;;;;8.43;5.57;;;;;;;;;;5053160;28;20045;-66
2021/06/18 06:24:14;;;;;;;8.80;6.05;;;;;;;;;;5052698;28;20045;-66
2021/06/18 06:26:40;;;;;;;7.35;5.90;;;;;;;;;;5033113;28;20037;-65
2021/06/18 06:29:05;;;;;;;7.85;6.28;;;;;;;;;;5050390;28;20434;-66
2021/06/18 06:31:31;;;;;;;8.23;6.10;;;;;;;;;;5052330;28;20037;-66
2021/06/18 06:33:57;;;;;;;7.43;6.22;;;;;;;;;;5052841;28;20082;-66
2021/06/18 06:36:23;;;;;;;7.78;5.78;;;;;;;;;;5035111;28;20096;-66
2021/06/18 06:38:50;;;;;;;7.70;6.20;;;;;;;;;;5033971;28;20045;-66
2021/06/18 06:41:15;;;;;;;8.75;6.80;;;;;;;;;;5051640;28;20099;-66
2021/06/18 06:43:41;;;;;;;8.32;6.65;;;;;;;;;;5038676;28;20088;-66
2021/06/18 06:46:06;;;;;;;8.15;6.32;;;;;;;;;;5035719;28;20045;-66
2021/06/18 06:48:32;;;;;;;9.82;6.60;;;;;;;;;;5052457;28;20028;-66
2021/06/18 06:50:57;;;;;;;10.73;6.88;;;;;;;;;;5067245;28;20037;-66
2021/06/18 06:53:23;;;;;;;9.25;7.25;;;;;;;;;;5041937;28;21143;-66
2021/06/18 06:55:49;;;;;;;8.50;6.53;;;;;;;;;;5049321;28;20037;-67
2021/06/18 06:58:14;;;;;;;6.90;5.90;;;;;;;;;;5050792;28;20046;-66
2021/06/18 07:00:40;;;;;;;8.13;6.10;;;;;;;;;;5067467;28;20025;-66
2021/06/18 07:03:05;;;;;;;8.77;6.65;;;;;;;;;;5031375;28;20044;-66
2021/06/18 07:05:31;;;;;;;8.02;6.07;;;;;;;;;;5049439;28;20025;-66
2021/06/18 07:07:56;;;;;;;7.93;6.30;;;;;;;;;;5020101;28;20114;-66
2021/06/18 07:10:22;;;;;;;8.43;6.78;;;;;;;;;;5050107;28;20586;-66
2021/06/18 07:12:47;;;;;;;9.07;6.65;;;;;;;;;;5053238;28;20083;-66
2021/06/18 07:15:13;;;;;;;8.88;6.82;;;;;;;;;;5052109;28;20512;-66
2021/06/18 07:17:39;;;;;;;8.20;6.53;;;;;;;;;;5033071;28;20512;-65
2021/06/18 07:20:05;;;;;;;8.02;6.60;;;;;;;;;;5052468;28;20037;-65
2021/06/18 07:22:30;;;;;;;8.30;6.88;;;;;;;;;;5050197;28;20030;-65
2021/06/18 07:24:57;;;;;;;7.63;5.95;;;;;;;;;;5034796;28;20033;-65
2021/06/18 07:27:23;;;;;;;8.82;6.18;;;;;;;;;;5051371;28;20038;-66
2021/06/18 07:29:49;;;;;;;8.52;6.80;;;;;;;;;;5050629;28;20204;-66
2021/06/18 07:32:15;;;;;;;7.85;6.03;;;;;;;;;;5033906;28;20065;-66
2021/06/18 07:34:40;;;;;;;9.40;7.43;;;;;;;;;;5050797;28;20653;-66
2021/06/18 07:37:06;;;;;;;7.60;6.30;;;;;;;;;;5050951;28;20037;-66
2021/06/18 07:39:31;;;;;;;9.43;6.50;;;;;;;;;;5032273;28;20037;-66
2021/06/18 07:41:57;;;;;;;7.90;6.20;;;;;;;;;;5033870;28;20028;-66
2021/06/18 07:44:22;;;;;;;8.82;6.68;;;;;;;;;;5050280;28;20065;-66
2021/06/18 07:46:48;;;;;;;7.93;6.30;;;;;;;;;;5059581;28;20033;-66
2021/06/18 07:49:13;;;;;;;8.98;6.95;;;;;;;;;;5001982;28;20060;-65
2021/06/18 07:51:39;;;;;;;8.48;6.28;;;;;;;;;;5033734;28;20033;-66
2021/06/18 07:54:04;;;;;;;8.50;6.10;;;;;;;;;;5051898;28;20025;-66
2021/06/18 07:56:33;;;;;;;8.48;6.53;;;;;;;;;;5051494;28;20549;-66
2021/06/18 07:58:58;;;;;;;8.07;6.18;;;;;;;;;;5033646;28;20040;-66
2021/06/18 08:01:24;;;;;;;9.32;6.13;;;;;;;;;;5033567;28;20400;-65
2021/06/18 08:03:49;;;;;;;9.73;6.20;;;;;;;;;;5015899;28;20569;-66
2021/06/18 08:06:16;;;;;;;7.68;6.10;;;;;;;;;;5048267;28;20033;-66
2021/06/18 08:08:42;;;;;;;8.73;7.15;;;;;;;;;;5065770;28;20053;-66
2021/06/18 08:11:08;;;;;;;9.05;7.10;;;;;;;;;;5049655;28;20029;-66
2021/06/18 08:13:33;;;;;;;8.20;6.15;;;;;;;;;;5050014;28;22998;-66
2021/06/18 08:15:59;;;;;;;8.70;6.70;;;;;;;;;;5050797;28;20345;-66
2021/06/18 08:18:24;;;;;;;8.18;6.38;;;;;;;;;;5050862;28;20791;-66
2021/06/18 08:20:49;;;;;;;7.18;5.82;;;;;;;;;;5065816;28;20037;-66
2021/06/18 08:23:15;;;;;;;8.18;6.05;;;;;;;;;;5050378;28;20025;-66
2021/06/18 08:25:41;;;;;;;7.50;6.22;;;;;;;;;;5050775;28;20029;-66
2021/06/18 08:28:06;;;;;;;8.73;6.30;;;;;;;;;;5050601;28;20551;-66
2021/06/18 08:30:31;;;;;;;6.93;5.82;;;;;;;;;;5051196;28;20033;-66
2021/06/18 08:32:57;;;;;;;7.47;5.65;;;;;;;;;;5051576;28;20041;-65
2021/06/18 08:35:22;;;;;;;7.05;5.75;;;;;;;;;;5049552;28;20040;-66
2021/06/18 08:37:48;;;;;;;9.02;6.25;;;;;;;;;;5049677;28;20080;-66
2021/06/18 08:40:14;;;;;;;7.70;5.82;;;;;;;;;;5041585;28;20117;-66
2021/06/18 08:42:40;;;;;;;7.80;6.00;;;;;;;;;;5050460;28;20051;-66
2021/06/18 08:45:06;;;;;;;7.28;6.07;;;;;;;;;;5031776;28;20040;-66
2021/06/18 08:47:32;;;;;;;7.43;5.53;;;;;;;;;;5017542;28;20121;-66
2021/06/18 08:49:57;;;;;;;7.88;5.78;;;;;;;;;;5051078;28;20038;-65
2021/06/18 08:52:23;;;;;;;7.38;5.88;;;;;;;;;;5065998;28;20033;-66
2021/06/18 08:54:49;;;;;;;8.57;5.70;;;;;;;;;;5048251;28;20220;-66
2021/06/18 08:57:17;;;;;;;7.57;5.35;;;;;;;;;;5032678;28;20038;-68
2021/06/18 08:59:42;;;;;;;7.55;5.70;;;;;;;;;;5030881;28;20036;-68
2021/06/18 09:02:09;;;;;;;7.47;5.40;;;;;;;;;;5050644;28;20041;-67
2021/06/18 09:05:11;;;;;;;8.63;5.50;;;;;;;;;;5031205;28;20025;-65
2021/06/18 09:07:53;;;;;;;5.90;5.20;;;;;;;;;;5049678;28;20048;-67
2021/06/18 09:10:23;;;;;;;7.10;5.50;;;;;;;;;;5032840;28;20107;-66
2021/06/18 09:13:17;;;;;;;7.13;5.65;;;;;;;;;;5041942;28;20061;-67
2021/06/18 09:15:45;;;;;;;6.93;5.68;;;;;;;;;;5031442;28;20045;-68
2021/06/18 09:18:23;;;;;;;8.80;5.70;;;;;;;;;;5052961;28;20040;-69
2021/06/18 09:20:49;;;;;;;8.98;6.13;;;;;;;;;;5052964;28;20060;-65
2021/06/18 09:23:34;;;;;;;7.47;5.78;;;;;;;;;;5037383;28;20048;-67
2021/06/18 09:26:21;;;;;;;8.50;5.90;;;;;;;;;;5054713;28;20041;-67
2021/06/18 09:29:00;;;;;;;8.52;6.60;;;;;;;;;;5052292;28;20045;-67
2021/06/18 09:31:27;;;;;;;9.23;6.05;;;;;;;;;;5052683;28;20041;-64
2021/06/18 09:33:53;;;;;;;7.63;6.07;;;;;;;;;;5036011;28;20375;-65
2021/06/18 09:36:18;;;;;;;7.97;6.38;;;;;;;;;;5053260;28;20709;-64
2021/06/18 09:38:50;;;;;;;7.97;6.03;;;;;;;;;;5054194;28;20559;-65
2021/06/18 09:41:28;;;;;;;7.30;6.00;;;;;;;;;;5037689;28;20029;-65
2021/06/18 09:44:16;;;;;;;7.22;6.03;;;;;;;;;;5066095;28;20564;-65
2021/06/18 09:46:52;;;;;;;7.88;6.32;;;;;;;;;;5025885;28;20605;-66
2021/06/18 09:49:39;;;;;;;8.27;5.90;;;;;;;;;;5044517;28;20052;-65
2021/06/18 09:52:13;;;;;;;7.07;5.85;;;;;;;;;;5052645;28;20037;-66
2021/06/18 09:54:49;;;;;;;9.75;6.10;;;;;;;;;;5051888;28;20069;-66
2021/06/18 09:57:18;;;;;;;8.00;6.22;;;;;;;;;;5052586;28;20057;-66
2021/06/18 09:59:57;;;;;;;8.88;6.35;;;;;;;;;;5037619;28;20079;-66
2021/06/18 10:02:40;;;;;;;7.53;6.20;;;;;;;;;;5054979;28;20025;-66
2021/06/18 10:05:19;;;;;;;8.15;6.10;;;;;;;;;;5053063;28;20638;-67
2021/06/18 10:07:45;;;;;;;9.70;6.88;;;;;;;;;;5054008;28;20095;-66
2021/06/18 10:10:16;;;;;;;9.02;6.43;;;;;;;;;;5053032;28;20021;-66
2021/06/18 10:12:41;;;;;;;8.80;6.70;;;;;;;;;;5069165;28;20029;-66
2021/06/18 10:15:08;;;;;;;8.25;6.47;;;;;;;;;;5034039;28;20033;-66
2021/06/18 10:17:35;;;;;;;10.85;7.03;;;;;;;;;;5035837;28;20159;-67
2021/06/18 10:20:01;;;;;;;6.90;5.95;;;;;;;;;;5033705;28;20040;-68
2021/06/18 10:22:26;;;;;;;9.63;6.05;;;;;;;;;;5034951;28;20052;-71
2021/06/18 10:25:07;;;;;;;8.73;5.78;;;;;;;;;;5020691;28;20044;-66
2021/06/18 10:27:53;;;;;;;8.57;6.45;;;;;;;;;;5035796;28;20855;-66
2021/06/18 10:30:36;;;;;;;7.65;6.07;;;;;;;;;;5031398;28;20077;-65
2021/06/18 10:33:22;;;;;;;7.50;5.90;;;;;;;;;;5034359;28;20039;-65
2021/06/18 10:36:10;;;;;;;8.23;6.18;;;;;;;;;;5064684;28;21011;-64
2021/06/18 10:38:34;;;;;;;7.60;5.60;;;;;;;;;;5053597;28;20196;-65
2021/06/18 10:41:02;;;;;;;8.85;6.18;;;;;;;;;;5035766;28;20095;-65
2021/06/18 10:43:41;;;;;;;8.38;6.30;;;;;;;;;;5034015;28;20111;-66
2021/06/18 10:46:07;;;;;;;6.72;5.30;;;;;;;;;;5043331;28;20034;-65
2021/06/18 10:48:51;;;;;;;8.98;6.20;;;;;;;;;;5043408;28;20041;-65
2021/06/18 10:51:26;;;;;;;7.65;5.93;;;;;;;;;;5034035;28;20033;-67
2021/06/18 10:54:02;;;;;;;10.02;6.07;;;;;;;;;;5051103;28;20060;-62
2021/06/18 10:56:46;;;;;;;5.55;4.60;;;;;;;;;;5051887;28;20527;-65
2021/06/18 10:59:16;;;;;;;6.50;4.82;;;;;;;;;;5051806;28;20037;-65
2021/06/18 11:01:42;;;;;;;6.82;5.15;;;;;;;;;;5068756;28;20516;-65
2021/06/18 11:04:08;;;;;;;6.88;5.22;;;;;;;;;;5034891;28;20377;-65
2021/06/18 11:06:47;;;;;;;6.15;5.20;;;;;;;;;;5052128;28;20040;-65
2021/06/18 11:09:13;;;;;;;6.80;4.88;;;;;;;;;;5040356;28;20061;-65
2021/06/18 11:11:39;;;;;;;7.03;4.93;;;;;;;;;;5019647;28;20034;-65
2021/06/18 11:14:05;;;;;;;5.65;4.50;;;;;;;;;;5053531;28;20246;-65
2021/06/18 11:16:40;;;;;;;6.82;5.00;;;;;;;;;;5036077;28;20064;-66
2021/06/18 11:19:26;;;;;;;6.38;4.50;;;;;;;;;;5051416;28;20521;-66
2021/06/18 11:21:51;;;;;;;5.03;4.13;;;;;;;;;;5052007;28;20033;-66
2021/06/18 11:24:39;;;;;;;6.07;4.63;;;;;;;;;;5032337;28;21000;-66
2021/06/18 11:27:25;;;;;;;6.05;4.65;;;;;;;;;;5052802;28;20037;-66
2021/06/18 11:30:29;;;;;;;6.43;4.60;;;;;;;;;;5051284;28;20037;-66
2021/06/18 11:32:55;;;;;;;6.53;4.03;;;;;;;;;;5051916;28;20087;-65
2021/06/18 11:35:33;;;;;;;8.38;4.07;;;;;;;;;;5043437;28;20039;-66
2021/06/18 11:38:15;;;;;;;4.43;3.47;;;;;;;;;;5051198;28;20037;-66
2021/06/18 11:40:41;;;;;;;5.47;3.60;;;;;;;;;;5032725;28;20539;-66
2021/06/18 11:43:06;;;;;;;5.65;3.85;;;;;;;;;;5049396;28;20032;-66
2021/06/18 11:45:42;;;;;;;5.93;3.38;;;;;;;;;;5051868;28;20704;-66
2021/06/18 11:48:14;;;;;;;4.72;3.58;;;;;;;;;;5034526;28;20087;-66
2021/06/18 11:50:40;;;;;;;4.30;3.35;;;;;;;;;;5049894;28;20037;-66
2021/06/18 11:53:05;;;;;;;5.65;3.22;;;;;;;;;;5051687;28;20037;-66
2021/06/18 11:55:31;;;;;;;5.65;3.13;;;;;;;;;;5052897;28;20563;-66
2021/06/18 11:57:56;;;;;;;3.92;2.95;;;;;;;;;;5050226;28;20035;-66
2021/06/18 12:00:34;;;;;;;4.13;2.83;;;;;;;;;;5051043;28;20041;-67
2021/06/18 12:03:00;;;;;;;4.90;2.80;;;;;;;;;;5052018;28;20502;-66
2021/06/18 12:05:33;;;;;;;4.68;2.75;;;;;;;;;;5048703;28;20816;-66
2021/06/18 12:07:59;;;;;;;4.38;2.75;;;;;;;;;;5049728;28;20046;-66
2021/06/18 12:10:33;;;;;;;4.90;2.53;;;;;;;;;;5051717;28;20037;-66
2021/06/18 12:13:00;;;;;;;4.28;2.33;;;;;;;;;;5031679;28;20501;-66
2021/06/18 12:15:29;;;;;;;4.00;2.47;;;;;;;;;;5048270;28;20445;-66
2021/06/18 12:18:05;;;;;;;4.53;2.40;;;;;;;;;;5051571;28;20021;-66
2021/06/18 12:20:33;;;;;;;4.70;3.63;;;;;;;;;;5048067;28;20049;-66
2021/06/18 12:22:58;;;;;;;6.28;3.40;;;;;;;;;;5066953;28;20048;-66
2021/06/18 12:25:24;;;;;;;5.60;2.90;;;;;;;;;;5050558;28;20085;-66
2021/06/18 12:27:54;;;;;;;4.18;2.90;;;;;;;;;;5049767;28;20064;-66
2021/06/18 12:30:20;;;;;;;4.90;2.95;;;;;;;;;;5066930;28;20119;-65
2021/06/18 12:32:46;;;;;;;4.32;2.88;;;;;;;;;;5017217;28;20028;-66
2021/06/18 12:35:12;;;;;;;5.00;2.83;;;;;;;;;;5032758;28;20025;-66
2021/06/18 12:37:39;;;;;;;4.50;2.75;;;;;;;;;;5037142;28;20077;-66
2021/06/18 12:40:13;;;;;;;3.50;2.63;;;;;;;;;;5050248;28;20029;-64
2021/06/18 12:42:43;;;;;;;5.70;2.85;;;;;;;;;;5018719;28;20040;-64
2021/06/18 12:45:16;;;;;;;4.53;2.92;;;;;;;;;;5033669;28;20033;-64
2021/06/18 12:47:42;;;;;;;6.28;2.78;;;;;;;;;;5049476;28;20053;-64
2021/06/18 12:50:28;;;;;;;4.00;2.70;;;;;;;;;;5014251;28;20056;-64
2021/06/18 12:53:01;;;;;;;4.70;2.53;;;;;;;;;;5065100;28;20038;-64
2021/06/18 12:55:39;;;;;;;4.10;2.40;;;;;;;;;;5014869;28;20066;-65
2021/06/18 12:58:19;;;;;;;4.22;2.55;;;;;;;;;;5018201;28;20037;-67
2021/06/18 13:00:52;;;;;;;3.17;2.30;;;;;;;;;;5035655;28;20040;-65
2021/06/18 13:03:37;;;;;;;5.15;2.67;;;;;;;;;;5027564;28;20091;-65
2021/06/18 13:06:04;;;;;;;5.63;2.78;;;;;;;;;;5057896;28;20478;-65
2021/06/18 13:08:30;;;;;;;3.67;2.30;;;;;;;;;;5049547;28;20128;-64
2021/06/18 13:10:56;;;;;;;4.63;2.38;;;;;;;;;;5031782;28;20045;-65
2021/06/18 13:13:24;;;;;;;4.88;2.70;;;;;;;;;;5050072;28;20041;-65
2021/06/18 13:15:50;;;;;;;4.13;2.47;;;;;;;;;;5050559;28;20494;-64
2021/06/18 13:18:16;;;;;;;3.83;2.40;;;;;;;;;;5041231;28;20577;-65
2021/06/18 13:20:42;;;;;;;4.07;2.60;;;;;;;;;;5048741;28;20061;-66
2021/06/18 13:23:30;;;;;;;3.97;2.58;;;;;;;;;;5049922;28;20029;-66
2021/06/18 13:26:09;;;;;;;3.13;2.50;;;;;;;;;;5024295;28;20454;-65
2021/06/18 13:28:48;;;;;;;3.40;2.30;;;;;;;;;;5031840;28;20048;-65
2021/06/18 13:31:21;;;;;;;3.90;2.72;;;;;;;;;;5048555;28;20038;-65
2021/06/18 13:33:51;;;;;;;3.67;2.40;;;;;;;;;;5051575;28;20177;-65
2021/06/18 13:36:37;;;;;;;3.38;2.55;;;;;;;;;;5033526;28;20115;-65
2021/06/18 13:39:22;;;;;;;3.78;2.63;;;;;;;;;;5050978;28;20080;-65
2021/06/18 13:41:47;;;;;;;3.88;2.60;;;;;;;;;;5033625;28;20500;-66
2021/06/18 13:44:13;;;;;;;3.92;2.90;;;;;;;;;;5031681;28;20042;-65
2021/06/18 13:46:39;;;;;;;6.15;3.38;;;;;;;;;;5029287;28;20037;-65
2021/06/18 13:49:05;;;;;;;5.85;3.90;;;;;;;;;;5050347;28;20037;-65
2021/06/18 13:51:31;;;;;;;5.28;4.38;;;;;;;;;;5032542;28;20574;-65
2021/06/18 13:53:58;;;;;;;6.22;4.65;;;;;;;;;;5017145;28;20478;-65
2021/06/18 13:56:24;;;;;;;7.00;4.95;;;;;;;;;;5049161;28;20036;-65
2021/06/18 13:58:49;;;;;;;6.63;5.30;;;;;;;;;;5050101;28;20625;-65
2021/06/18 14:01:14;;;;;;;8.55;4.97;;;;;;;;;;5048662;28;20087;-65
2021/06/18 14:03:40;;;;;;;6.65;5.30;;;;;;;;;;5051969;28;20383;-65
2021/06/18 14:06:06;;;;;;;6.93;4.88;;;;;;;;;;5033881;28;20086;-65
2021/06/18 14:08:32;;;;;;;5.80;3.83;;;;;;;;;;5054468;28;20916;-65
2021/06/18 14:10:57;;;;;;;6.50;3.80;;;;;;;;;;5051905;28;20032;-65
2021/06/18 14:13:23;;;;;;;8.18;3.67;;;;;;;;;;5032274;28;20127;-65
2021/06/18 14:15:51;;;;;;;4.63;3.45;;;;;;;;;;5051854;28;20044;-66
2021/06/18 14:18:20;;;;;;;5.32;3.55;;;;;;;;;;5052460;28;20038;-66
2021/06/18 14:20:47;;;;;;;4.80;3.33;;;;;;;;;;5052179;28;20037;-65
2021/06/18 14:23:13;;;;;;;6.50;3.58;;;;;;;;;;5052806;28;20041;-65
2021/06/18 14:25:39;;;;;;;5.88;3.50;;;;;;;;;;5032980;28;20091;-66
2021/06/18 14:28:04;;;;;;;6.50;3.13;;;;;;;;;;5066637;28;20114;-66
2021/06/18 14:30:30;;;;;;;6.10;3.50;;;;;;;;;;5033422;28;20038;-65
2021/06/18 14:32:56;;;;;;;5.95;3.10;;;;;;;;;;5023643;28;20439;-65
2021/06/18 14:35:22;;;;;;;6.05;2.97;;;;;;;;;;5051731;28;20083;-64
2021/06/18 14:37:47;;;;;;;5.28;3.20;;;;;;;;;;5052080;28;20333;-67
2021/06/18 14:40:14;;;;;;;5.45;3.33;;;;;;;;;;5017977;28;20495;-65
2021/06/18 14:42:39;;;;;;;7.60;2.95;;;;;;;;;;5052510;28;20025;-64
2021/06/18 14:45:05;;;;;;;6.97;3.15;;;;;;;;;;5051379;28;20041;-63
2021/06/18 14:47:31;;;;;;;5.68;3.40;;;;;;;;;;5034727;28;20516;-65
2021/06/18 14:49:57;;;;;;;6.22;3.30;;;;;;;;;;5034071;28;20052;-66
2021/06/18 14:52:22;;;;;;;4.72;2.95;;;;;;;;;;5033806;28;20438;-65